sensor_id;sensor_type;location;lat;lon;timestamp;temperature;humidity
29341;DHT22;16337;59.536;13.468;2023-05-24T00:01:22;9.70;99.90
29341;DHT22;16337;59.536;13.468;2023-05-24T00:03:51;9.70;99.90
29341;DHT22;16337;59.536;13.468;2023-05-24T00:06:18;9.70;99.90
29341;DHT22;16337;59.536;13.468;2023-05-24T00:08:44;9.60;99.90
29341;DHT22;16337;59.536;13.468;2023-05-24T00:11:09;9.50;99.90
29341;DHT22;16337;59.536;13.468;2023-05-24T00:13:36;9.50;99.90
29341;DHT22;16337;59.536;13.468;2023-05-24T00:16:08;9.50;99.90
29341;DHT22;16337;59.536;13.468;2023-05-24T00:18:34;9.50;99.90
29341;DHT22;16337;59.536;13.468;2023-05-24T00:21:08;9.50;99.90
29341;DHT22;16337;59.536;13.468;2023-05-24T00:23:34;9.50;99.90
29341;DHT22;16337;59.536;13.468;2023-05-24T00:26:04;9.80;99.90
29341;DHT22;16337;59.536;13.468;2023-05-24T00:28:30;9.90;99.90
29341;DHT22;16337;59.536;13.468;2023-05-24T00:30:57;9.90;99.90
29341;DHT22;16337;59.536;13.468;2023-05-24T00:33:23;9.90;99.90
29341;DHT22;16337;59.536;13.468;2023-05-24T00:35:49;9.90;99.90
29341;DHT22;16337;59.536;13.468;2023-05-24T00:38:26;9.80;99.90
29341;DHT22;16337;59.536;13.468;2023-05-24T00:40:55;9.80;99.90
29341;DHT22;16337;59.536;13.468;2023-05-24T00:43:22;9.70;99.90
29341;DHT22;16337;59.536;13.468;2023-05-24T00:48:28;9.90;99.90
29341;DHT22;16337;59.536;13.468;2023-05-24T00:50:54;9.70;99.90
29341;DHT22;16337;59.536;13.468;2023-05-24T00:53:23;9.70;99.90
29341;DHT22;16337;59.536;13.468;2023-05-24T00:55:48;9.60;99.90
29341;DHT22;16337;59.536;13.468;2023-05-24T00:58:15;9.50;99.90
29341;DHT22;16337;59.536;13.468;2023-05-24T01:00:42;9.40;99.90
29341;DHT22;16337;59.536;13.468;2023-05-24T01:05:46;9.20;99.90
29341;DHT22;16337;59.536;13.468;2023-05-24T01:17:30;9.10;99.90
29341;DHT22;16337;59.536;13.468;2023-05-24T01:20:02;9.10;99.90
29341;DHT22;16337;59.536;13.468;2023-05-24T01:28:30;9.00;99.90
29341;DHT22;16337;59.536;13.468;2023-05-24T01:30:58;8.90;99.90
29341;DHT22;16337;59.536;13.468;2023-05-24T01:33:25;8.90;99.90
29341;DHT22;16337;59.536;13.468;2023-05-24T01:35:50;9.00;99.90
29341;DHT22;16337;59.536;13.468;2023-05-24T01:38:16;9.00;99.90
29341;DHT22;16337;59.536;13.468;2023-05-24T01:40:42;9.00;99.90
29341;DHT22;16337;59.536;13.468;2023-05-24T01:43:16;9.00;99.90
29341;DHT22;16337;59.536;13.468;2023-05-24T01:47:06;8.90;99.90
29341;DHT22;16337;59.536;13.468;2023-05-24T01:51:40;8.80;99.90
29341;DHT22;16337;59.536;13.468;2023-05-24T01:54:10;8.80;99.90
29341;DHT22;16337;59.536;13.468;2023-05-24T01:56:37;8.70;99.90
29341;DHT22;16337;59.536;13.468;2023-05-24T01:59:04;8.60;99.90
29341;DHT22;16337;59.536;13.468;2023-05-24T02:01:31;8.60;99.90
29341;DHT22;16337;59.536;13.468;2023-05-24T02:03:57;8.60;99.90
29341;DHT22;16337;59.536;13.468;2023-05-24T02:06:23;8.50;99.90
29341;DHT22;16337;59.536;13.468;2023-05-24T02:08:49;8.50;99.90
29341;DHT22;16337;59.536;13.468;2023-05-24T02:11:17;8.50;99.90
29341;DHT22;16337;59.536;13.468;2023-05-24T02:13:43;8.40;99.90
29341;DHT22;16337;59.536;13.468;2023-05-24T02:16:09;8.50;99.90
29341;DHT22;16337;59.536;13.468;2023-05-24T02:18:35;8.50;99.90
29341;DHT22;16337;59.536;13.468;2023-05-24T02:21:03;8.50;99.90
29341;DHT22;16337;59.536;13.468;2023-05-24T02:23:29;8.50;99.90
29341;DHT22;16337;59.536;13.468;2023-05-24T02:25:55;8.50;99.90
29341;DHT22;16337;59.536;13.468;2023-05-24T02:28:21;8.40;99.90
29341;DHT22;16337;59.536;13.468;2023-05-24T02:30:46;8.40;99.90
29341;DHT22;16337;59.536;13.468;2023-05-24T02:33:12;8.40;99.90
29341;DHT22;16337;59.536;13.468;2023-05-24T02:35:38;8.40;99.90
29341;DHT22;16337;59.536;13.468;2023-05-24T02:38:06;8.30;99.90
29341;DHT22;16337;59.536;13.468;2023-05-24T02:40:31;8.30;99.90
29341;DHT22;16337;59.536;13.468;2023-05-24T02:42:57;8.30;99.90
29341;DHT22;16337;59.536;13.468;2023-05-24T02:45:23;8.30;99.90
29341;DHT22;16337;59.536;13.468;2023-05-24T02:47:49;8.30;99.90
29341;DHT22;16337;59.536;13.468;2023-05-24T02:50:15;8.40;99.90
29341;DHT22;16337;59.536;13.468;2023-05-24T02:52:41;8.40;99.90
29341;DHT22;16337;59.536;13.468;2023-05-24T02:55:07;8.50;99.90
29341;DHT22;16337;59.536;13.468;2023-05-24T02:57:32;8.50;99.90
29341;DHT22;16337;59.536;13.468;2023-05-24T02:59:58;8.60;99.90
29341;DHT22;16337;59.536;13.468;2023-05-24T03:02:24;8.60;99.90
29341;DHT22;16337;59.536;13.468;2023-05-24T03:04:53;8.60;99.90
29341;DHT22;16337;59.536;13.468;2023-05-24T03:07:19;8.70;99.90
29341;DHT22;16337;59.536;13.468;2023-05-24T03:09:44;8.80;99.90
29341;DHT22;16337;59.536;13.468;2023-05-24T03:12:10;8.90;99.90
29341;DHT22;16337;59.536;13.468;2023-05-24T03:14:37;8.90;99.90
29341;DHT22;16337;59.536;13.468;2023-05-24T03:17:03;8.90;99.90
29341;DHT22;16337;59.536;13.468;2023-05-24T03:19:28;9.00;99.90
29341;DHT22;16337;59.536;13.468;2023-05-24T03:21:55;9.00;99.90
29341;DHT22;16337;59.536;13.468;2023-05-24T03:24:20;9.00;99.90
29341;DHT22;16337;59.536;13.468;2023-05-24T03:26:46;9.10;99.90
29341;DHT22;16337;59.536;13.468;2023-05-24T03:29:12;9.10;99.90
29341;DHT22;16337;59.536;13.468;2023-05-24T03:31:37;9.10;99.90
29341;DHT22;16337;59.536;13.468;2023-05-24T03:34:03;9.20;99.90
29341;DHT22;16337;59.536;13.468;2023-05-24T03:36:29;9.20;99.90
29341;DHT22;16337;59.536;13.468;2023-05-24T03:38:55;9.20;99.90
29341;DHT22;16337;59.536;13.468;2023-05-24T03:41:22;9.30;99.90
29341;DHT22;16337;59.536;13.468;2023-05-24T03:43:48;9.30;99.90
29341;DHT22;16337;59.536;13.468;2023-05-24T03:46:14;9.40;99.90
29341;DHT22;16337;59.536;13.468;2023-05-24T03:48:39;9.40;99.90
29341;DHT22;16337;59.536;13.468;2023-05-24T03:51:05;9.50;99.90
29341;DHT22;16337;59.536;13.468;2023-05-24T03:53:34;9.60;99.90
29341;DHT22;16337;59.536;13.468;2023-05-24T03:55:59;9.60;99.90
29341;DHT22;16337;59.536;13.468;2023-05-24T03:58:25;9.60;99.90
29341;DHT22;16337;59.536;13.468;2023-05-24T04:00:51;9.70;99.90
29341;DHT22;16337;59.536;13.468;2023-05-24T04:03:17;9.80;99.90
29341;DHT22;16337;59.536;13.468;2023-05-24T04:05:44;9.90;99.90
29341;DHT22;16337;59.536;13.468;2023-05-24T04:08:10;9.90;99.90
29341;DHT22;16337;59.536;13.468;2023-05-24T04:10:37;10.00;99.90
29341;DHT22;16337;59.536;13.468;2023-05-24T04:13:02;10.10;99.90
29341;DHT22;16337;59.536;13.468;2023-05-24T04:15:28;10.20;99.90
29341;DHT22;16337;59.536;13.468;2023-05-24T04:17:55;10.20;99.90
29341;DHT22;16337;59.536;13.468;2023-05-24T04:20:21;10.40;99.90
29341;DHT22;16337;59.536;13.468;2023-05-24T04:22:52;10.50;99.90
29341;DHT22;16337;59.536;13.468;2023-05-24T04:25:19;10.50;99.90
29341;DHT22;16337;59.536;13.468;2023-05-24T04:27:44;10.70;99.90
29341;DHT22;16337;59.536;13.468;2023-05-24T04:30:14;11.00;99.90
29341;DHT22;16337;59.536;13.468;2023-05-24T04:32:42;12.00;99.90
29341;DHT22;16337;59.536;13.468;2023-05-24T04:35:11;12.90;99.90
29341;DHT22;16337;59.536;13.468;2023-05-24T04:37:38;13.70;99.90
29341;DHT22;16337;59.536;13.468;2023-05-24T04:40:06;14.50;99.90
29341;DHT22;16337;59.536;13.468;2023-05-24T04:42:33;15.10;99.90
29341;DHT22;16337;59.536;13.468;2023-05-24T04:44:59;15.50;99.90
29341;DHT22;16337;59.536;13.468;2023-05-24T04:47:25;15.80;99.90
29341;DHT22;16337;59.536;13.468;2023-05-24T04:49:51;16.10;99.90
29341;DHT22;16337;59.536;13.468;2023-05-24T04:52:17;16.30;99.90
29341;DHT22;16337;59.536;13.468;2023-05-24T04:54:43;16.40;99.90
29341;DHT22;16337;59.536;13.468;2023-05-24T04:57:09;16.60;99.90
29341;DHT22;16337;59.536;13.468;2023-05-24T04:59:34;16.70;99.90
29341;DHT22;16337;59.536;13.468;2023-05-24T05:02:00;16.90;99.90
29341;DHT22;16337;59.536;13.468;2023-05-24T05:04:26;17.10;99.90
29341;DHT22;16337;59.536;13.468;2023-05-24T05:06:52;17.20;99.90
29341;DHT22;16337;59.536;13.468;2023-05-24T05:09:17;17.30;99.90
29341;DHT22;16337;59.536;13.468;2023-05-24T05:11:45;17.40;99.90
29341;DHT22;16337;59.536;13.468;2023-05-24T05:14:11;17.40;99.90
29341;DHT22;16337;59.536;13.468;2023-05-24T05:16:37;17.40;99.90
29341;DHT22;16337;59.536;13.468;2023-05-24T05:19:04;17.60;99.90
29341;DHT22;16337;59.536;13.468;2023-05-24T05:21:30;17.50;99.90
29341;DHT22;16337;59.536;13.468;2023-05-24T05:24:00;17.50;99.90
29341;DHT22;16337;59.536;13.468;2023-05-24T05:26:26;17.60;99.90
29341;DHT22;16337;59.536;13.468;2023-05-24T05:28:52;17.70;99.90
29341;DHT22;16337;59.536;13.468;2023-05-24T05:31:19;17.60;99.90
29341;DHT22;16337;59.536;13.468;2023-05-24T05:33:45;17.30;99.90
29341;DHT22;16337;59.536;13.468;2023-05-24T05:36:11;17.30;99.90
29341;DHT22;16337;59.536;13.468;2023-05-24T05:38:36;17.50;99.90
29341;DHT22;16337;59.536;13.468;2023-05-24T05:41:02;17.40;99.90
29341;DHT22;16337;59.536;13.468;2023-05-24T05:43:28;17.40;99.90
29341;DHT22;16337;59.536;13.468;2023-05-24T05:45:54;17.40;99.90
29341;DHT22;16337;59.536;13.468;2023-05-24T05:48:20;17.50;99.90
29341;DHT22;16337;59.536;13.468;2023-05-24T05:50:46;17.60;99.90
29341;DHT22;16337;59.536;13.468;2023-05-24T05:53:14;17.60;99.90
29341;DHT22;16337;59.536;13.468;2023-05-24T05:55:40;17.90;99.90
29341;DHT22;16337;59.536;13.468;2023-05-24T05:58:06;18.20;99.90
29341;DHT22;16337;59.536;13.468;2023-05-24T06:00:32;18.40;99.90
29341;DHT22;16337;59.536;13.468;2023-05-24T06:02:57;18.40;99.90
29341;DHT22;16337;59.536;13.468;2023-05-24T06:05:23;18.60;99.90
29341;DHT22;16337;59.536;13.468;2023-05-24T06:07:49;18.80;99.90
29341;DHT22;16337;59.536;13.468;2023-05-24T06:10:15;19.10;99.90
29341;DHT22;16337;59.536;13.468;2023-05-24T06:12:41;19.20;99.90
29341;DHT22;16337;59.536;13.468;2023-05-24T06:15:07;19.00;99.90
29341;DHT22;16337;59.536;13.468;2023-05-24T06:17:33;18.70;99.90
29341;DHT22;16337;59.536;13.468;2023-05-24T06:19:59;18.40;99.90
29341;DHT22;16337;59.536;13.468;2023-05-24T06:22:25;18.30;99.90
29341;DHT22;16337;59.536;13.468;2023-05-24T06:24:54;18.20;99.90
29341;DHT22;16337;59.536;13.468;2023-05-24T06:27:20;18.30;99.90
29341;DHT22;16337;59.536;13.468;2023-05-24T06:29:45;18.50;99.90
29341;DHT22;16337;59.536;13.468;2023-05-24T06:32:11;18.80;99.90
29341;DHT22;16337;59.536;13.468;2023-05-24T06:34:37;18.80;99.90
29341;DHT22;16337;59.536;13.468;2023-05-24T06:37:03;18.80;99.90
29341;DHT22;16337;59.536;13.468;2023-05-24T06:39:29;18.70;99.90
29341;DHT22;16337;59.536;13.468;2023-05-24T06:41:54;18.70;99.90
29341;DHT22;16337;59.536;13.468;2023-05-24T06:44:20;18.60;99.90
29341;DHT22;16337;59.536;13.468;2023-05-24T06:46:47;18.70;99.90
29341;DHT22;16337;59.536;13.468;2023-05-24T06:49:13;18.90;99.90
29341;DHT22;16337;59.536;13.468;2023-05-24T06:51:39;19.20;99.90
29341;DHT22;16337;59.536;13.468;2023-05-24T06:54:05;19.50;99.90
29341;DHT22;16337;59.536;13.468;2023-05-24T06:56:31;19.40;99.90
29341;DHT22;16337;59.536;13.468;2023-05-24T06:58:58;19.40;99.90
29341;DHT22;16337;59.536;13.468;2023-05-24T07:01:24;19.40;99.90
29341;DHT22;16337;59.536;13.468;2023-05-24T07:03:49;19.70;99.90
29341;DHT22;16337;59.536;13.468;2023-05-24T07:06:16;19.90;99.90
29341;DHT22;16337;59.536;13.468;2023-05-24T07:08:42;19.60;99.90
29341;DHT22;16337;59.536;13.468;2023-05-24T07:11:09;19.70;99.90
29341;DHT22;16337;59.536;13.468;2023-05-24T07:13:37;20.00;99.90
29341;DHT22;16337;59.536;13.468;2023-05-24T07:16:06;20.10;99.90
29341;DHT22;16337;59.536;13.468;2023-05-24T07:18:38;20.00;99.90
29341;DHT22;16337;59.536;13.468;2023-05-24T07:21:15;20.20;99.90
29341;DHT22;16337;59.536;13.468;2023-05-24T07:23:41;20.40;99.90
29341;DHT22;16337;59.536;13.468;2023-05-24T07:26:07;20.60;99.90
29341;DHT22;16337;59.536;13.468;2023-05-24T07:28:37;20.20;99.90
29341;DHT22;16337;59.536;13.468;2023-05-24T07:31:04;20.10;99.90
29341;DHT22;16337;59.536;13.468;2023-05-24T07:33:32;19.90;99.90
29341;DHT22;16337;59.536;13.468;2023-05-24T07:36:00;20.10;99.90
29341;DHT22;16337;59.536;13.468;2023-05-24T07:38:30;20.50;99.90
29341;DHT22;16337;59.536;13.468;2023-05-24T07:40:59;20.70;99.90
29341;DHT22;16337;59.536;13.468;2023-05-24T07:43:24;20.70;99.90
29341;DHT22;16337;59.536;13.468;2023-05-24T07:45:52;20.60;99.90
29341;DHT22;16337;59.536;13.468;2023-05-24T07:48:18;20.90;99.90
29341;DHT22;16337;59.536;13.468;2023-05-24T07:50:44;21.20;99.90
29341;DHT22;16337;59.536;13.468;2023-05-24T07:53:16;21.40;99.90
29341;DHT22;16337;59.536;13.468;2023-05-24T07:55:41;21.00;99.90
29341;DHT22;16337;59.536;13.468;2023-05-24T07:58:09;21.00;99.90
29341;DHT22;16337;59.536;13.468;2023-05-24T08:00:35;21.10;99.90
29341;DHT22;16337;59.536;13.468;2023-05-24T08:03:01;21.00;99.90
29341;DHT22;16337;59.536;13.468;2023-05-24T08:05:27;21.10;99.90
29341;DHT22;16337;59.536;13.468;2023-05-24T08:07:53;21.40;99.90
29341;DHT22;16337;59.536;13.468;2023-05-24T08:10:19;21.70;99.90
29341;DHT22;16337;59.536;13.468;2023-05-24T08:12:45;21.60;99.90
29341;DHT22;16337;59.536;13.468;2023-05-24T08:15:10;21.80;99.90
29341;DHT22;16337;59.536;13.468;2023-05-24T08:17:54;21.80;99.90
29341;DHT22;16337;59.536;13.468;2023-05-24T08:20:30;21.60;99.90
29341;DHT22;16337;59.536;13.468;2023-05-24T08:23:00;21.80;99.90
29341;DHT22;16337;59.536;13.468;2023-05-24T08:25:36;21.90;99.90
29341;DHT22;16337;59.536;13.468;2023-05-24T08:28:02;22.20;99.90
29341;DHT22;16337;59.536;13.468;2023-05-24T08:30:28;22.20;99.90
29341;DHT22;16337;59.536;13.468;2023-05-24T08:32:55;22.30;99.90
29341;DHT22;16337;59.536;13.468;2023-05-24T08:35:22;22.70;99.90
29341;DHT22;16337;59.536;13.468;2023-05-24T08:37:49;23.00;99.90
29341;DHT22;16337;59.536;13.468;2023-05-24T08:40:15;22.80;99.90
29341;DHT22;16337;59.536;13.468;2023-05-24T08:42:41;23.00;99.90
29341;DHT22;16337;59.536;13.468;2023-05-24T08:45:10;23.40;99.90
29341;DHT22;16337;59.536;13.468;2023-05-24T08:47:37;23.50;99.90
29341;DHT22;16337;59.536;13.468;2023-05-24T08:50:04;23.40;99.90
29341;DHT22;16337;59.536;13.468;2023-05-24T08:52:31;23.70;99.90
29341;DHT22;16337;59.536;13.468;2023-05-24T08:55:02;23.80;99.90
29341;DHT22;16337;59.536;13.468;2023-05-24T08:57:30;23.80;99.90
29341;DHT22;16337;59.536;13.468;2023-05-24T08:59:59;23.90;99.90
29341;DHT22;16337;59.536;13.468;2023-05-24T09:02:25;24.00;99.90
29341;DHT22;16337;59.536;13.468;2023-05-24T09:04:52;23.90;99.90
29341;DHT22;16337;59.536;13.468;2023-05-24T09:07:22;23.80;99.90
29341;DHT22;16337;59.536;13.468;2023-05-24T09:10:03;24.20;99.90
29341;DHT22;16337;59.536;13.468;2023-05-24T09:12:31;24.10;99.90
29341;DHT22;16337;59.536;13.468;2023-05-24T09:15:01;24.10;99.90
29341;DHT22;16337;59.536;13.468;2023-05-24T09:17:29;24.50;99.90
29341;DHT22;16337;59.536;13.468;2023-05-24T09:19:56;24.50;99.90
29341;DHT22;16337;59.536;13.468;2023-05-24T09:22:27;24.50;99.90
29341;DHT22;16337;59.536;13.468;2023-05-24T09:25:02;24.60;99.90
29341;DHT22;16337;59.536;13.468;2023-05-24T09:27:28;24.80;99.90
29341;DHT22;16337;59.536;13.468;2023-05-24T09:29:56;25.20;99.90
29341;DHT22;16337;59.536;13.468;2023-05-24T09:32:23;25.30;99.90
29341;DHT22;16337;59.536;13.468;2023-05-24T09:34:51;24.70;99.90
29341;DHT22;16337;59.536;13.468;2023-05-24T09:37:21;25.00;99.90
29341;DHT22;16337;59.536;13.468;2023-05-24T09:39:52;24.90;99.90
29341;DHT22;16337;59.536;13.468;2023-05-24T09:42:19;25.00;99.90
29341;DHT22;16337;59.536;13.468;2023-05-24T09:45:02;25.20;99.90
29341;DHT22;16337;59.536;13.468;2023-05-24T09:47:31;25.10;99.90
29341;DHT22;16337;59.536;13.468;2023-05-24T09:49:58;25.00;99.90
29341;DHT22;16337;59.536;13.468;2023-05-24T09:52:24;25.20;99.90
29341;DHT22;16337;59.536;13.468;2023-05-24T09:54:50;25.40;99.90
29341;DHT22;16337;59.536;13.468;2023-05-24T09:57:17;25.50;99.90
29341;DHT22;16337;59.536;13.468;2023-05-24T09:59:42;25.90;99.90
29341;DHT22;16337;59.536;13.468;2023-05-24T10:02:10;25.70;99.90
29341;DHT22;16337;59.536;13.468;2023-05-24T10:04:38;25.60;99.90
29341;DHT22;16337;59.536;13.468;2023-05-24T10:07:07;25.50;99.90
29341;DHT22;16337;59.536;13.468;2023-05-24T10:09:34;25.80;99.90
29341;DHT22;16337;59.536;13.468;2023-05-24T10:12:02;25.80;99.90
29341;DHT22;16337;59.536;13.468;2023-05-24T10:14:36;25.80;99.90
29341;DHT22;16337;59.536;13.468;2023-05-24T10:17:03;26.20;99.90
29341;DHT22;16337;59.536;13.468;2023-05-24T10:19:33;26.10;99.90
29341;DHT22;16337;59.536;13.468;2023-05-24T10:22:00;26.00;99.90
29341;DHT22;16337;59.536;13.468;2023-05-24T10:24:39;26.10;99.90
29341;DHT22;16337;59.536;13.468;2023-05-24T10:27:13;26.30;99.90
29341;DHT22;16337;59.536;13.468;2023-05-24T10:32:16;26.00;99.90
29341;DHT22;16337;59.536;13.468;2023-05-24T10:34:42;26.10;99.90
29341;DHT22;16337;59.536;13.468;2023-05-24T10:37:09;26.40;99.90
29341;DHT22;16337;59.536;13.468;2023-05-24T10:39:35;26.50;99.90
29341;DHT22;16337;59.536;13.468;2023-05-24T10:42:05;25.90;99.90
29341;DHT22;16337;59.536;13.468;2023-05-24T10:44:31;26.10;99.90
29341;DHT22;16337;59.536;13.468;2023-05-24T10:47:10;26.40;99.90
29341;DHT22;16337;59.536;13.468;2023-05-24T10:49:50;25.70;99.90
29341;DHT22;16337;59.536;13.468;2023-05-24T10:52:17;25.60;99.90
29341;DHT22;16337;59.536;13.468;2023-05-24T10:55:07;25.00;99.90
29341;DHT22;16337;59.536;13.468;2023-05-24T10:57:34;25.00;99.90
29341;DHT22;16337;59.536;13.468;2023-05-24T11:02:48;24.60;99.70
29341;DHT22;16337;59.536;13.468;2023-05-24T11:05:14;24.90;99.30
29341;DHT22;16337;59.536;13.468;2023-05-24T11:07:41;25.30;99.70
29341;DHT22;16337;59.536;13.468;2023-05-24T11:10:30;25.60;99.90
29341;DHT22;16337;59.536;13.468;2023-05-24T11:12:59;25.60;99.40
29341;DHT22;16337;59.536;13.468;2023-05-24T11:15:25;26.00;99.90
29341;DHT22;16337;59.536;13.468;2023-05-24T11:20:37;26.30;98.00
29341;DHT22;16337;59.536;13.468;2023-05-24T11:23:04;26.60;97.80
29341;DHT22;16337;59.536;13.468;2023-05-24T11:25:39;26.90;96.30
29341;DHT22;16337;59.536;13.468;2023-05-24T11:28:09;26.80;96.40
29341;DHT22;16337;59.536;13.468;2023-05-24T11:33:13;25.90;96.10
29341;DHT22;16337;59.536;13.468;2023-05-24T11:35:42;26.10;96.30
29341;DHT22;16337;59.536;13.468;2023-05-24T11:38:12;26.10;96.60
29341;DHT22;16337;59.536;13.468;2023-05-24T11:40:42;27.00;95.90
29341;DHT22;16337;59.536;13.468;2023-05-24T11:43:20;27.40;96.40
29341;DHT22;16337;59.536;13.468;2023-05-24T11:45:50;27.10;95.30
29341;DHT22;16337;59.536;13.468;2023-05-24T11:48:18;27.10;94.70
29341;DHT22;16337;59.536;13.468;2023-05-24T11:50:46;27.20;95.80
29341;DHT22;16337;59.536;13.468;2023-05-24T11:53:17;27.10;93.10
29341;DHT22;16337;59.536;13.468;2023-05-24T11:55:43;26.60;93.10
29341;DHT22;16337;59.536;13.468;2023-05-24T11:58:22;26.80;93.40
29341;DHT22;16337;59.536;13.468;2023-05-24T12:00:48;26.40;92.80
29341;DHT22;16337;59.536;13.468;2023-05-24T12:03:14;26.40;94.70
29341;DHT22;16337;59.536;13.468;2023-05-24T12:05:41;26.50;93.20
29341;DHT22;16337;59.536;13.468;2023-05-24T12:08:11;26.10;93.00
29341;DHT22;16337;59.536;13.468;2023-05-24T12:10:39;26.20;93.60
29341;DHT22;16337;59.536;13.468;2023-05-24T12:13:16;26.60;95.10
29341;DHT22;16337;59.536;13.468;2023-05-24T12:15:42;26.70;92.90
29341;DHT22;16337;59.536;13.468;2023-05-24T12:18:18;26.60;93.10
29341;DHT22;16337;59.536;13.468;2023-05-24T12:20:45;26.90;94.80
29341;DHT22;16337;59.536;13.468;2023-05-24T12:23:13;26.80;93.30
29341;DHT22;16337;59.536;13.468;2023-05-24T12:25:39;25.90;93.30
29341;DHT22;16337;59.536;13.468;2023-05-24T12:28:04;24.50;94.80
29341;DHT22;16337;59.536;13.468;2023-05-24T12:30:30;24.80;95.40
29341;DHT22;16337;59.536;13.468;2023-05-24T12:32:56;25.40;96.80
29341;DHT22;16337;59.536;13.468;2023-05-24T12:35:22;25.90;94.60
29341;DHT22;16337;59.536;13.468;2023-05-24T12:37:49;25.90;94.30
29341;DHT22;16337;59.536;13.468;2023-05-24T12:42:42;26.60;94.40
29341;DHT22;16337;59.536;13.468;2023-05-24T12:45:09;27.20;94.10
29341;DHT22;16337;59.536;13.468;2023-05-24T12:47:36;27.50;93.60
29341;DHT22;16337;59.536;13.468;2023-05-24T12:50:01;27.20;92.40
29341;DHT22;16337;59.536;13.468;2023-05-24T12:52:27;27.20;93.80
29341;DHT22;16337;59.536;13.468;2023-05-24T12:54:53;26.80;92.00
29341;DHT22;16337;59.536;13.468;2023-05-24T12:57:19;26.20;93.10
29341;DHT22;16337;59.536;13.468;2023-05-24T12:59:45;25.80;94.00
29341;DHT22;16337;59.536;13.468;2023-05-24T13:02:11;26.00;95.60
29341;DHT22;16337;59.536;13.468;2023-05-24T13:04:37;26.30;94.50
29341;DHT22;16337;59.536;13.468;2023-05-24T13:07:03;27.00;94.30
29341;DHT22;16337;59.536;13.468;2023-05-24T13:09:29;26.90;92.90
29341;DHT22;16337;59.536;13.468;2023-05-24T13:11:55;26.10;93.40
29341;DHT22;16337;59.536;13.468;2023-05-24T13:14:20;25.70;94.30
29341;DHT22;16337;59.536;13.468;2023-05-24T13:16:46;25.20;94.50
29341;DHT22;16337;59.536;13.468;2023-05-24T13:19:12;24.90;97.30
29341;DHT22;16337;59.536;13.468;2023-05-24T13:21:38;24.70;96.80
29341;DHT22;16337;59.536;13.468;2023-05-24T13:24:04;24.60;96.30
29341;DHT22;16337;59.536;13.468;2023-05-24T13:26:31;24.50;96.90
29341;DHT22;16337;59.536;13.468;2023-05-24T13:29:05;24.30;96.60
29341;DHT22;16337;59.536;13.468;2023-05-24T13:31:31;24.60;97.80
29341;DHT22;16337;59.536;13.468;2023-05-24T13:33:56;25.10;97.40
29341;DHT22;16337;59.536;13.468;2023-05-24T13:36:22;24.70;96.00
29341;DHT22;16337;59.536;13.468;2023-05-24T13:38:48;24.30;97.30
29341;DHT22;16337;59.536;13.468;2023-05-24T13:41:14;24.00;98.60
29341;DHT22;16337;59.536;13.468;2023-05-24T13:43:39;23.80;98.30
29341;DHT22;16337;59.536;13.468;2023-05-24T13:46:05;23.60;99.60
29341;DHT22;16337;59.536;13.468;2023-05-24T13:48:31;24.30;99.50
29341;DHT22;16337;59.536;13.468;2023-05-24T13:50:57;24.70;98.50
29341;DHT22;16337;59.536;13.468;2023-05-24T13:53:22;24.70;98.50
29341;DHT22;16337;59.536;13.468;2023-05-24T13:55:48;24.50;98.80
29341;DHT22;16337;59.536;13.468;2023-05-24T13:58:14;24.20;98.10
29341;DHT22;16337;59.536;13.468;2023-05-24T14:00:40;24.20;98.60
29341;DHT22;16337;59.536;13.468;2023-05-24T14:03:06;24.00;98.20
29341;DHT22;16337;59.536;13.468;2023-05-24T14:05:32;24.00;99.90
29341;DHT22;16337;59.536;13.468;2023-05-24T14:07:58;24.10;99.50
29341;DHT22;16337;59.536;13.468;2023-05-24T14:10:34;24.30;99.60
29341;DHT22;16337;59.536;13.468;2023-05-24T14:13:04;24.40;98.10
29341;DHT22;16337;59.536;13.468;2023-05-24T14:15:30;24.30;99.70
29341;DHT22;16337;59.536;13.468;2023-05-24T14:17:56;24.50;98.60
29341;DHT22;16337;59.536;13.468;2023-05-24T14:20:23;24.80;98.10
29341;DHT22;16337;59.536;13.468;2023-05-24T14:22:48;24.90;98.00
29341;DHT22;16337;59.536;13.468;2023-05-24T14:25:15;24.90;97.60
29341;DHT22;16337;59.536;13.468;2023-05-24T14:27:41;25.00;97.20
29341;DHT22;16337;59.536;13.468;2023-05-24T14:30:08;24.70;96.90
29341;DHT22;16337;59.536;13.468;2023-05-24T14:32:34;24.70;95.70
29341;DHT22;16337;59.536;13.468;2023-05-24T14:35:00;24.50;96.30
29341;DHT22;16337;59.536;13.468;2023-05-24T14:37:26;24.70;96.50
29341;DHT22;16337;59.536;13.468;2023-05-24T14:39:52;24.60;96.00
29341;DHT22;16337;59.536;13.468;2023-05-24T14:42:18;24.40;96.00
29341;DHT22;16337;59.536;13.468;2023-05-24T14:44:43;24.50;96.80
29341;DHT22;16337;59.536;13.468;2023-05-24T14:47:09;24.50;96.40
29341;DHT22;16337;59.536;13.468;2023-05-24T14:49:35;24.50;96.90
29341;DHT22;16337;59.536;13.468;2023-05-24T14:52:01;24.40;96.60
29341;DHT22;16337;59.536;13.468;2023-05-24T14:54:27;24.60;96.30
29341;DHT22;16337;59.536;13.468;2023-05-24T14:56:53;24.70;95.30
29341;DHT22;16337;59.536;13.468;2023-05-24T14:59:18;24.50;95.80
29341;DHT22;16337;59.536;13.468;2023-05-24T15:01:44;24.50;95.10
29341;DHT22;16337;59.536;13.468;2023-05-24T15:04:10;24.20;94.90
29341;DHT22;16337;59.536;13.468;2023-05-24T15:06:35;23.80;95.20
29341;DHT22;16337;59.536;13.468;2023-05-24T15:09:01;23.40;95.40
29341;DHT22;16337;59.536;13.468;2023-05-24T15:11:28;23.10;95.20
29341;DHT22;16337;59.536;13.468;2023-05-24T15:13:54;23.00;96.10
29341;DHT22;16337;59.536;13.468;2023-05-24T15:16:27;22.90;95.80
29341;DHT22;16337;59.536;13.468;2023-05-24T15:18:53;22.80;96.30
29341;DHT22;16337;59.536;13.468;2023-05-24T15:21:19;22.80;95.40
29341;DHT22;16337;59.536;13.468;2023-05-24T15:23:46;23.00;95.60
29341;DHT22;16337;59.536;13.468;2023-05-24T15:26:12;23.10;95.40
29341;DHT22;16337;59.536;13.468;2023-05-24T15:28:38;23.40;95.20
29341;DHT22;16337;59.536;13.468;2023-05-24T15:31:04;23.50;94.50
29341;DHT22;16337;59.536;13.468;2023-05-24T15:33:30;23.80;94.70
29341;DHT22;16337;59.536;13.468;2023-05-24T15:35:57;24.00;94.00
29341;DHT22;16337;59.536;13.468;2023-05-24T15:38:23;24.10;93.70
29341;DHT22;16337;59.536;13.468;2023-05-24T15:40:49;23.90;93.50
29341;DHT22;16337;59.536;13.468;2023-05-24T15:43:18;23.70;93.60
29341;DHT22;16337;59.536;13.468;2023-05-24T15:45:44;23.60;93.90
29341;DHT22;16337;59.536;13.468;2023-05-24T15:48:10;23.30;93.60
29341;DHT22;16337;59.536;13.468;2023-05-24T15:50:37;23.00;94.60
29341;DHT22;16337;59.536;13.468;2023-05-24T15:53:04;22.80;95.30
29341;DHT22;16337;59.536;13.468;2023-05-24T15:55:30;22.70;95.40
29341;DHT22;16337;59.536;13.468;2023-05-24T15:57:56;22.50;95.60